sensor_id;sensor_type;location;lat;lon;timestamp;pressure;altitude;pressure_sealevel;temperature;humidity
72961;BME280;61141;46.204;19.774;2022-11-11T00:01:50;101975.13;;;8.64;100.00
72961;BME280;61141;46.204;19.774;2022-11-11T00:05:11;101972.53;;;8.59;100.00
72961;BME280;61141;46.204;19.774;2022-11-11T00:08:32;101972.84;;;8.49;100.00
72961;BME280;61141;46.204;19.774;2022-11-11T00:11:52;101973.28;;;8.43;100.00
72961;BME280;61141;46.204;19.774;2022-11-11T00:15:24;101981.50;;;8.51;100.00
72961;BME280;61141;46.204;19.774;2022-11-11T00:18:45;101983.41;;;8.42;100.00
72961;BME280;61141;46.204;19.774;2022-11-11T00:22:25;101976.19;;;8.46;100.00
72961;BME280;61141;46.204;19.774;2022-11-11T00:26:05;101986.25;;;8.37;100.00
72961;BME280;61141;46.204;19.774;2022-11-11T00:29:47;101980.69;;;8.42;100.00
72961;BME280;61141;46.204;19.774;2022-11-11T00:33:08;101997.69;;;8.39;100.00
72961;BME280;61141;46.204;19.774;2022-11-11T00:36:30;101999.44;;;8.35;100.00
72961;BME280;61141;46.204;19.774;2022-11-11T00:39:51;101973.91;;;8.17;100.00
72961;BME280;61141;46.204;19.774;2022-11-11T00:43:12;101994.34;;;8.20;100.00
72961;BME280;61141;46.204;19.774;2022-11-11T00:46:33;101987.69;;;8.12;100.00
72961;BME280;61141;46.204;19.774;2022-11-11T00:50:21;101993.25;;;7.99;100.00
72961;BME280;61141;46.204;19.774;2022-11-11T00:54:01;101988.25;;;7.92;100.00
72961;BME280;61141;46.204;19.774;2022-11-11T00:57:22;101964.44;;;7.84;100.00
72961;BME280;61141;46.204;19.774;2022-11-11T01:00:44;101971.28;;;7.82;100.00
72961;BME280;61141;46.204;19.774;2022-11-11T01:04:05;101994.44;;;7.84;100.00
72961;BME280;61141;46.204;19.774;2022-11-11T01:07:26;101988.34;;;7.65;100.00
72961;BME280;61141;46.204;19.774;2022-11-11T01:10:48;101996.50;;;7.79;100.00
72961;BME280;61141;46.204;19.774;2022-11-11T01:14:10;101989.34;;;7.69;100.00
72961;BME280;61141;46.204;19.774;2022-11-11T01:17:30;101982.19;;;7.82;100.00
72961;BME280;61141;46.204;19.774;2022-11-11T01:24:19;102000.44;;;7.95;100.00
72961;BME280;61141;46.204;19.774;2022-11-11T01:27:41;101988.53;;;7.68;100.00
72961;BME280;61141;46.204;19.774;2022-11-11T01:31:07;101997.19;;;7.70;100.00
72961;BME280;61141;46.204;19.774;2022-11-11T01:34:28;101995.34;;;7.57;100.00
72961;BME280;61141;46.204;19.774;2022-11-11T01:37:49;101992.63;;;7.57;100.00
72961;BME280;61141;46.204;19.774;2022-11-11T01:41:13;101995.72;;;7.64;100.00
72961;BME280;61141;46.204;19.774;2022-11-11T01:44:53;102000.19;;;7.60;100.00
72961;BME280;61141;46.204;19.774;2022-11-11T01:48:37;101980.28;;;7.60;100.00
72961;BME280;61141;46.204;19.774;2022-11-11T01:52:25;101991.03;;;7.79;100.00
72961;BME280;61141;46.204;19.774;2022-11-11T01:55:48;101969.44;;;7.46;100.00
72961;BME280;61141;46.204;19.774;2022-11-11T01:59:11;101990.09;;;7.61;100.00
72961;BME280;61141;46.204;19.774;2022-11-11T02:06:01;102007.69;;;7.77;100.00
72961;BME280;61141;46.204;19.774;2022-11-11T02:09:23;101993.78;;;7.87;100.00
72961;BME280;61141;46.204;19.774;2022-11-11T02:12:45;101979.06;;;7.88;100.00
72961;BME280;61141;46.204;19.774;2022-11-11T02:16:26;102003.78;;;7.92;100.00
72961;BME280;61141;46.204;19.774;2022-11-11T02:19:58;102009.63;;;7.77;100.00
72961;BME280;61141;46.204;19.774;2022-11-11T02:23:26;102001.34;;;7.68;100.00
72961;BME280;61141;46.204;19.774;2022-11-11T02:26:48;101979.66;;;7.63;100.00
72961;BME280;61141;46.204;19.774;2022-11-11T02:30:19;102001.69;;;7.66;100.00
72961;BME280;61141;46.204;19.774;2022-11-11T02:33:41;101992.72;;;7.52;100.00
72961;BME280;61141;46.204;19.774;2022-11-11T02:37:05;101991.94;;;7.52;100.00
72961;BME280;61141;46.204;19.774;2022-11-11T02:40:32;101981.38;;;7.37;100.00
72961;BME280;61141;46.204;19.774;2022-11-11T02:43:55;101987.38;;;7.25;100.00
72961;BME280;61141;46.204;19.774;2022-11-11T02:47:16;102008.69;;;7.23;100.00
72961;BME280;61141;46.204;19.774;2022-11-11T02:50:38;101993.94;;;7.10;100.00
72961;BME280;61141;46.204;19.774;2022-11-11T02:53:59;102014.84;;;7.15;100.00
72961;BME280;61141;46.204;19.774;2022-11-11T02:57:23;102011.44;;;7.09;100.00
72961;BME280;61141;46.204;19.774;2022-11-11T03:00:44;102016.84;;;6.96;100.00
72961;BME280;61141;46.204;19.774;2022-11-11T03:04:06;102024.41;;;7.12;100.00
72961;BME280;61141;46.204;19.774;2022-11-11T03:07:27;102022.50;;;7.13;100.00
72961;BME280;61141;46.204;19.774;2022-11-11T03:10:49;102028.97;;;7.03;100.00
72961;BME280;61141;46.204;19.774;2022-11-11T03:14:10;102032.91;;;7.11;100.00
72961;BME280;61141;46.204;19.774;2022-11-11T03:17:31;102045.91;;;7.14;100.00
72961;BME280;61141;46.204;19.774;2022-11-11T03:21:01;102019.06;;;7.21;100.00
72961;BME280;61141;46.204;19.774;2022-11-11T03:24:45;102038.81;;;7.27;100.00
72961;BME280;61141;46.204;19.774;2022-11-11T03:28:25;102031.31;;;7.46;100.00
72961;BME280;61141;46.204;19.774;2022-11-11T03:31:51;102040.09;;;7.56;100.00
72961;BME280;61141;46.204;19.774;2022-11-11T03:35:12;102028.12;;;7.66;100.00
72961;BME280;61141;46.204;19.774;2022-11-11T03:38:33;102029.38;;;7.60;100.00
72961;BME280;61141;46.204;19.774;2022-11-11T03:41:56;102041.09;;;7.60;100.00
72961;BME280;61141;46.204;19.774;2022-11-11T03:45:17;102034.75;;;7.51;100.00
72961;BME280;61141;46.204;19.774;2022-11-11T03:48:38;102038.59;;;7.50;100.00
72961;BME280;61141;46.204;19.774;2022-11-11T03:51:58;102041.62;;;7.49;100.00
72961;BME280;61141;46.204;19.774;2022-11-11T03:55:19;102052.12;;;7.55;100.00
72961;BME280;61141;46.204;19.774;2022-11-11T03:58:40;102049.34;;;7.33;100.00
72961;BME280;61141;46.204;19.774;2022-11-11T04:02:01;102049.00;;;7.35;100.00
72961;BME280;61141;46.204;19.774;2022-11-11T04:05:41;102045.50;;;7.34;100.00
72961;BME280;61141;46.204;19.774;2022-11-11T04:09:20;102039.94;;;7.39;100.00
72961;BME280;61141;46.204;19.774;2022-11-11T04:13:00;102040.22;;;7.38;100.00
72961;BME280;61141;46.204;19.774;2022-11-11T04:16:41;102038.81;;;7.27;100.00
72961;BME280;61141;46.204;19.774;2022-11-11T04:20:02;102044.09;;;7.23;100.00
72961;BME280;61141;46.204;19.774;2022-11-11T04:23:42;102050.75;;;7.31;100.00
72961;BME280;61141;46.204;19.774;2022-11-11T04:27:08;102059.75;;;7.18;100.00
72961;BME280;61141;46.204;19.774;2022-11-11T04:30:30;102060.87;;;7.03;100.00
72961;BME280;61141;46.204;19.774;2022-11-11T04:33:51;102065.50;;;6.89;100.00
72961;BME280;61141;46.204;19.774;2022-11-11T04:37:12;102059.25;;;6.88;100.00
72961;BME280;61141;46.204;19.774;2022-11-11T04:40:34;102066.69;;;6.83;100.00
72961;BME280;61141;46.204;19.774;2022-11-11T04:44:14;102085.88;;;6.91;100.00
72961;BME280;61141;46.204;19.774;2022-11-11T04:47:59;102100.41;;;6.87;100.00
72961;BME280;61141;46.204;19.774;2022-11-11T04:51:20;102099.38;;;6.83;100.00
72961;BME280;61141;46.204;19.774;2022-11-11T04:55:02;102115.03;;;6.91;100.00
72961;BME280;61141;46.204;19.774;2022-11-11T04:58:42;102110.59;;;6.81;100.00
72961;BME280;61141;46.204;19.774;2022-11-11T05:02:04;102102.09;;;6.83;100.00
72961;BME280;61141;46.204;19.774;2022-11-11T05:05:57;102103.22;;;6.82;100.00
72961;BME280;61141;46.204;19.774;2022-11-11T05:09:37;102098.56;;;6.82;100.00
72961;BME280;61141;46.204;19.774;2022-11-11T05:12:59;102100.00;;;6.93;100.00
72961;BME280;61141;46.204;19.774;2022-11-11T05:16:55;102108.75;;;6.77;100.00
72961;BME280;61141;46.204;19.774;2022-11-11T05:20:35;102103.50;;;6.80;100.00
72961;BME280;61141;46.204;19.774;2022-11-11T05:24:14;102102.81;;;6.75;100.00
72961;BME280;61141;46.204;19.774;2022-11-11T05:27:56;102097.84;;;6.63;100.00
72961;BME280;61141;46.204;19.774;2022-11-11T05:31:17;102118.53;;;6.78;100.00
72961;BME280;61141;46.204;19.774;2022-11-11T05:34:38;102112.69;;;6.71;100.00
72961;BME280;61141;46.204;19.774;2022-11-11T05:38:03;102112.75;;;6.66;100.00
72961;BME280;61141;46.204;19.774;2022-11-11T05:41:42;102111.53;;;6.58;100.00
72961;BME280;61141;46.204;19.774;2022-11-11T05:45:04;102127.75;;;6.49;100.00
72961;BME280;61141;46.204;19.774;2022-11-11T05:48:25;102126.22;;;6.43;100.00
72961;BME280;61141;46.204;19.774;2022-11-11T05:51:47;102134.72;;;6.56;100.00
72961;BME280;61141;46.204;19.774;2022-11-11T05:55:08;102128.16;;;6.43;100.00
72961;BME280;61141;46.204;19.774;2022-11-11T05:58:29;102144.03;;;6.36;100.00
72961;BME280;61141;46.204;19.774;2022-11-11T06:01:50;102147.47;;;6.41;100.00
72961;BME280;61141;46.204;19.774;2022-11-11T06:05:11;102160.59;;;6.39;100.00
72961;BME280;61141;46.204;19.774;2022-11-11T06:08:32;102176.66;;;6.55;100.00
72961;BME280;61141;46.204;19.774;2022-11-11T06:11:54;102168.75;;;6.39;100.00
72961;BME280;61141;46.204;19.774;2022-11-11T06:15:15;102178.66;;;6.49;100.00
72961;BME280;61141;46.204;19.774;2022-11-11T06:18:36;102179.09;;;6.56;100.00
72961;BME280;61141;46.204;19.774;2022-11-11T06:21:57;102189.63;;;6.63;100.00
72961;BME280;61141;46.204;19.774;2022-11-11T06:25:21;102192.06;;;6.78;100.00
72961;BME280;61141;46.204;19.774;2022-11-11T06:29:01;102197.28;;;6.93;100.00
72961;BME280;61141;46.204;19.774;2022-11-11T06:32:23;102201.94;;;7.06;100.00
72961;BME280;61141;46.204;19.774;2022-11-11T06:35:47;102198.91;;;7.07;100.00
72961;BME280;61141;46.204;19.774;2022-11-11T06:39:08;102182.56;;;7.07;100.00
72961;BME280;61141;46.204;19.774;2022-11-11T06:42:35;102207.44;;;7.33;100.00
72961;BME280;61141;46.204;19.774;2022-11-11T06:45:56;102212.69;;;7.43;100.00
72961;BME280;61141;46.204;19.774;2022-11-11T06:49:18;102215.94;;;7.45;100.00
72961;BME280;61141;46.204;19.774;2022-11-11T06:52:39;102223.19;;;7.36;100.00
72961;BME280;61141;46.204;19.774;2022-11-11T06:56:00;102229.72;;;7.22;100.00
72961;BME280;61141;46.204;19.774;2022-11-11T06:59:21;102230.66;;;7.58;100.00
72961;BME280;61141;46.204;19.774;2022-11-11T07:02:42;102234.41;;;7.62;100.00
72961;BME280;61141;46.204;19.774;2022-11-11T07:06:04;102225.59;;;7.38;100.00
72961;BME280;61141;46.204;19.774;2022-11-11T07:09:25;102223.81;;;7.60;100.00
72961;BME280;61141;46.204;19.774;2022-11-11T07:12:49;102224.81;;;7.51;100.00
72961;BME280;61141;46.204;19.774;2022-11-11T07:16:11;102226.72;;;7.64;100.00
72961;BME280;61141;46.204;19.774;2022-11-11T07:19:32;102220.47;;;7.63;100.00
72961;BME280;61141;46.204;19.774;2022-11-11T07:22:55;102223.81;;;7.60;100.00
72961;BME280;61141;46.204;19.774;2022-11-11T07:26:17;102235.62;;;7.69;100.00
72961;BME280;61141;46.204;19.774;2022-11-11T07:29:38;102224.72;;;7.69;100.00
72961;BME280;61141;46.204;19.774;2022-11-11T07:32:59;102232.47;;;7.76;100.00
72961;BME280;61141;46.204;19.774;2022-11-11T07:36:23;102228.03;;;7.80;100.00
72961;BME280;61141;46.204;19.774;2022-11-11T07:39:44;102230.97;;;7.84;100.00
72961;BME280;61141;46.204;19.774;2022-11-11T07:43:05;102234.88;;;8.54;100.00
72961;BME280;61141;46.204;19.774;2022-11-11T07:46:26;102242.88;;;8.51;100.00
72961;BME280;61141;46.204;19.774;2022-11-11T07:49:47;102248.28;;;8.42;100.00
72961;BME280;61141;46.204;19.774;2022-11-11T07:53:09;102258.62;;;8.90;100.00
72961;BME280;61141;46.204;19.774;2022-11-11T07:56:30;102262.84;;;8.73;99.15
72961;BME280;61141;46.204;19.774;2022-11-11T07:59:52;102269.12;;;9.18;99.90
72961;BME280;61141;46.204;19.774;2022-11-11T08:03:13;102272.34;;;9.20;97.86
72961;BME280;61141;46.204;19.774;2022-11-11T08:06:34;102255.31;;;9.01;97.95
72961;BME280;61141;46.204;19.774;2022-11-11T08:09:56;102252.16;;;9.08;97.96
72961;BME280;61141;46.204;19.774;2022-11-11T08:13:17;102270.63;;;9.02;97.35
72961;BME280;61141;46.204;19.774;2022-11-11T08:17:26;102252.91;;;9.22;98.57
72961;BME280;61141;46.204;19.774;2022-11-11T08:20:54;102246.87;;;9.42;96.71
72961;BME280;61141;46.204;19.774;2022-11-11T08:24:15;102263.81;;;9.92;95.16
72961;BME280;61141;46.204;19.774;2022-11-11T08:28:00;102270.44;;;9.91;94.52
72961;BME280;61141;46.204;19.774;2022-11-11T08:31:21;102275.94;;;10.08;93.90
72961;BME280;61141;46.204;19.774;2022-11-11T08:34:42;102274.59;;;9.97;93.09
72961;BME280;61141;46.204;19.774;2022-11-11T08:38:04;102283.16;;;9.95;94.39
72961;BME280;61141;46.204;19.774;2022-11-11T08:41:25;102286.47;;;10.15;93.28
72961;BME280;61141;46.204;19.774;2022-11-11T08:44:47;102293.09;;;10.39;92.88
72961;BME280;61141;46.204;19.774;2022-11-11T08:48:08;102296.47;;;10.28;92.11
72961;BME280;61141;46.204;19.774;2022-11-11T08:51:30;102304.25;;;10.43;92.62
72961;BME280;61141;46.204;19.774;2022-11-11T08:55:02;102310.41;;;10.57;91.43
72961;BME280;61141;46.204;19.774;2022-11-11T08:58:23;102311.97;;;10.58;92.26
72961;BME280;61141;46.204;19.774;2022-11-11T09:01:44;102314.44;;;10.77;91.15
72961;BME280;61141;46.204;19.774;2022-11-11T09:05:05;102316.03;;;10.78;91.08
72961;BME280;61141;46.204;19.774;2022-11-11T09:08:29;102314.28;;;10.90;90.81
72961;BME280;61141;46.204;19.774;2022-11-11T09:11:50;102314.75;;;11.18;90.12
72961;BME280;61141;46.204;19.774;2022-11-11T09:15:11;102320.25;;;11.01;90.38
72961;BME280;61141;46.204;19.774;2022-11-11T09:18:32;102319.59;;;11.12;91.03
72961;BME280;61141;46.204;19.774;2022-11-11T09:21:53;102316.22;;;10.90;90.90
72961;BME280;61141;46.204;19.774;2022-11-11T09:25:15;102299.25;;;10.96;91.34
72961;BME280;61141;46.204;19.774;2022-11-11T09:28:36;102307.16;;;11.24;90.84
72961;BME280;61141;46.204;19.774;2022-11-11T09:32:04;102301.91;;;11.48;89.62
72961;BME280;61141;46.204;19.774;2022-11-11T09:35:25;102306.12;;;11.45;89.30
72961;BME280;61141;46.204;19.774;2022-11-11T09:38:46;102317.19;;;11.66;88.57
72961;BME280;61141;46.204;19.774;2022-11-11T09:42:38;102311.87;;;11.61;88.81
72961;BME280;61141;46.204;19.774;2022-11-11T09:50:02;102309.16;;;11.52;89.33
72961;BME280;61141;46.204;19.774;2022-11-11T09:53:47;102310.75;;;11.62;89.05
72961;BME280;61141;46.204;19.774;2022-11-11T09:57:18;102281.72;;;11.99;87.63
72961;BME280;61141;46.204;19.774;2022-11-11T10:00:45;102296.25;;;12.28;86.63
72961;BME280;61141;46.204;19.774;2022-11-11T10:07:50;102293.25;;;12.42;85.20
72961;BME280;61141;46.204;19.774;2022-11-11T10:11:24;102293.66;;;12.53;84.67
72961;BME280;61141;46.204;19.774;2022-11-11T10:14:47;102270.72;;;12.28;85.01
72961;BME280;61141;46.204;19.774;2022-11-11T10:18:35;102285.88;;;12.55;84.69
72961;BME280;61141;46.204;19.774;2022-11-11T10:22:05;102276.56;;;12.88;82.89
72961;BME280;61141;46.204;19.774;2022-11-11T10:25:33;102282.78;;;12.98;82.55
72961;BME280;61141;46.204;19.774;2022-11-11T10:28:59;102285.06;;;13.16;80.62
72961;BME280;61141;46.204;19.774;2022-11-11T10:32:28;102272.31;;;13.57;79.06
72961;BME280;61141;46.204;19.774;2022-11-11T10:35:52;102271.13;;;13.45;79.61
72961;BME280;61141;46.204;19.774;2022-11-11T10:39:23;102270.03;;;13.83;78.86
72961;BME280;61141;46.204;19.774;2022-11-11T10:42:46;102266.59;;;14.22;75.99
72961;BME280;61141;46.204;19.774;2022-11-11T10:46:17;102270.50;;;14.33;75.55
72961;BME280;61141;46.204;19.774;2022-11-11T10:50:30;102266.75;;;14.53;73.86
72961;BME280;61141;46.204;19.774;2022-11-11T11:00:34;102267.25;;;14.43;73.56
72961;BME280;61141;46.204;19.774;2022-11-11T11:04:07;102267.72;;;14.09;73.46
72961;BME280;61141;46.204;19.774;2022-11-11T11:08:05;102258.78;;;14.12;74.41
72961;BME280;61141;46.204;19.774;2022-11-11T11:11:37;102260.84;;;14.15;74.45
72961;BME280;61141;46.204;19.774;2022-11-11T11:15:07;102257.03;;;14.20;73.79
72961;BME280;61141;46.204;19.774;2022-11-11T11:18:30;102256.91;;;14.28;73.33
72961;BME280;61141;46.204;19.774;2022-11-11T11:25:12;102246.59;;;14.37;73.64
72961;BME280;61141;46.204;19.774;2022-11-11T11:28:34;102248.53;;;14.37;72.20
72961;BME280;61141;46.204;19.774;2022-11-11T11:32:18;102244.38;;;14.43;71.42
72961;BME280;61141;46.204;19.774;2022-11-11T11:35:43;102231.34;;;14.55;71.47
72961;BME280;61141;46.204;19.774;2022-11-11T11:39:05;102231.28;;;14.52;71.60
72961;BME280;61141;46.204;19.774;2022-11-11T11:45:59;102219.94;;;14.17;72.07
72961;BME280;61141;46.204;19.774;2022-11-11T11:56:40;102205.72;;;14.03;72.86
72961;BME280;61141;46.204;19.774;2022-11-11T12:00:05;102197.88;;;14.17;72.30
72961;BME280;61141;46.204;19.774;2022-11-11T12:11:08;102182.03;;;14.26;72.91
72961;BME280;61141;46.204;19.774;2022-11-11T12:14:37;102178.09;;;14.39;72.23
72961;BME280;61141;46.204;19.774;2022-11-11T12:26:07;102184.94;;;14.57;70.63
72961;BME280;61141;46.204;19.774;2022-11-11T12:40:43;102179.03;;;14.43;70.38
72961;BME280;61141;46.204;19.774;2022-11-11T12:44:10;102185.34;;;14.44;71.99
72961;BME280;61141;46.204;19.774;2022-11-11T12:47:39;102185.22;;;14.40;72.10
72961;BME280;61141;46.204;19.774;2022-11-11T12:55:05;102197.06;;;14.41;71.90
72961;BME280;61141;46.204;19.774;2022-11-11T13:09:39;102202.06;;;13.87;73.13
72961;BME280;61141;46.204;19.774;2022-11-11T13:17:00;102213.22;;;13.66;73.93
72961;BME280;61141;46.204;19.774;2022-11-11T13:23:55;102212.53;;;13.69;74.94
72961;BME280;61141;46.204;19.774;2022-11-11T13:31:35;102228.47;;;13.51;75.34
72961;BME280;61141;46.204;19.774;2022-11-11T13:34:58;102217.91;;;13.53;75.87
72961;BME280;61141;46.204;19.774;2022-11-11T13:38:33;102226.97;;;13.54;75.64
72961;BME280;61141;46.204;19.774;2022-11-11T13:41:55;102221.25;;;13.59;76.15
72961;BME280;61141;46.204;19.774;2022-11-11T13:45:25;102218.16;;;13.61;74.99
72961;BME280;61141;46.204;19.774;2022-11-11T13:48:48;102226.06;;;13.62;74.53
72961;BME280;61141;46.204;19.774;2022-11-11T13:52:24;102220.34;;;13.55;74.72
72961;BME280;61141;46.204;19.774;2022-11-11T13:55:49;102221.34;;;13.38;74.83
72961;BME280;61141;46.204;19.774;2022-11-11T13:59:50;102205.25;;;13.28;76.58
72961;BME280;61141;46.204;19.774;2022-11-11T14:10:07;102194.09;;;13.01;77.68
72961;BME280;61141;46.204;19.774;2022-11-11T14:20:40;102199.63;;;13.13;78.23
72961;BME280;61141;46.204;19.774;2022-11-11T14:24:02;102205.84;;;13.22;78.19
72961;BME280;61141;46.204;19.774;2022-11-11T14:27:29;102193.91;;;13.18;78.20
72961;BME280;61141;46.204;19.774;2022-11-11T14:30:51;102184.72;;;13.14;78.54
72961;BME280;61141;46.204;19.774;2022-11-11T14:34:27;102189.87;;;13.15;78.31
72961;BME280;61141;46.204;19.774;2022-11-11T14:38:01;102189.78;;;13.12;78.55
72961;BME280;61141;46.204;19.774;2022-11-11T14:45:02;102190.16;;;13.02;79.08
72961;BME280;61141;46.204;19.774;2022-11-11T14:48:53;102190.34;;;12.84;79.76
72961;BME280;61141;46.204;19.774;2022-11-11T14:52:27;102198.00;;;12.79;79.66
72961;BME280;61141;46.204;19.774;2022-11-11T14:55:54;102193.44;;;12.83;79.02
72961;BME280;61141;46.204;19.774;2022-11-11T14:59:17;102191.81;;;12.70;80.13
72961;BME280;61141;46.204;19.774;2022-11-11T15:02:50;102188.78;;;12.63;80.45
72961;BME280;61141;46.204;19.774;2022-11-11T15:06:17;102182.50;;;12.42;81.72
72961;BME280;61141;46.204;19.774;2022-11-11T15:10:11;102197.94;;;12.34;82.60
72961;BME280;61141;46.204;19.774;2022-11-11T15:24:47;102215.16;;;12.22;83.45
72961;BME280;61141;46.204;19.774;2022-11-11T15:32:14;102213.03;;;11.99;84.92
72961;BME280;61141;46.204;19.774;2022-11-11T15:39:38;102202.03;;;11.78;85.65
72961;BME280;61141;46.204;19.774;2022-11-11T15:43:01;102193.66;;;11.66;86.50
72961;BME280;61141;46.204;19.774;2022-11-11T15:46:26;102194.66;;;11.61;87.09
72961;BME280;61141;46.204;19.774;2022-11-11T15:49:48;102178.81;;;11.38;87.46
72961;BME280;61141;46.204;19.774;2022-11-11T15:53:11;102142.91;;;11.13;87.92
72961;BME280;61141;46.204;19.774;2022-11-11T15:56:33;102196.88;;;11.39;87.99
72961;BME280;61141;46.204;19.774;2022-11-11T15:59:56;102204.66;;;11.28;88.18
72961;BME280;61141;46.204;19.774;2022-11-11T16:03:45;102207.59;;;11.14;89.60
72961;BME280;61141;46.204;19.774;2022-11-11T16:07:19;102216.00;;;11.18;88.86
72961;BME280;61141;46.204;19.774;2022-11-11T16:10:42;102190.34;;;11.05;89.24
72961;BME280;61141;46.204;19.774;2022-11-11T16:14:04;102206.16;;;11.08;89.29
72961;BME280;61141;46.204;19.774;2022-11-11T16:17:34;102201.81;;;11.07;89.74
72961;BME280;61141;46.204;19.774;2022-11-11T16:24:29;102186.03;;;10.96;89.79
72961;BME280;61141;46.204;19.774;2022-11-11T16:27:51;102192.66;;;10.86;89.80
72961;BME280;61141;46.204;19.774;2022-11-11T16:31:38;102188.19;;;10.73;91.78
72961;BME280;61141;46.204;19.774;2022-11-11T16:35:25;102190.63;;;10.57;91.56
72961;BME280;61141;46.204;19.774;2022-11-11T16:38:48;102201.25;;;10.42;92.86
72961;BME280;61141;46.204;19.774;2022-11-11T16:42:23;102205.44;;;10.31;92.72
72961;BME280;61141;46.204;19.774;2022-11-11T16:45:47;102208.03;;;10.27;92.54
72961;BME280;61141;46.204;19.774;2022-11-11T16:49:37;102202.06;;;10.25;92.37
72961;BME280;61141;46.204;19.774;2022-11-11T16:53:02;102212.31;;;10.11;92.93
72961;BME280;61141;46.204;19.774;2022-11-11T16:56:28;102217.00;;;10.02;93.78
72961;BME280;61141;46.204;19.774;2022-11-11T16:59:54;102213.63;;;10.05;93.28
72961;BME280;61141;46.204;19.774;2022-11-11T17:03:22;102216.63;;;9.95;93.26
72961;BME280;61141;46.204;19.774;2022-11-11T17:06:51;102214.53;;;9.92;93.88
72961;BME280;61141;46.204;19.774;2022-11-11T17:13:36;102201.78;;;9.79;94.19
72961;BME280;61141;46.204;19.774;2022-11-11T17:17:04;102189.72;;;9.71;94.47
72961;BME280;61141;46.204;19.774;2022-11-11T17:20:29;102186.75;;;9.59;94.45
72961;BME280;61141;46.204;19.774;2022-11-11T17:23:51;102196.22;;;9.53;94.97
72961;BME280;61141;46.204;19.774;2022-11-11T17:27:13;102204.94;;;9.55;95.18
72961;BME280;61141;46.204;19.774;2022-11-11T17:30:35;102201.50;;;9.41;95.05
72961;BME280;61141;46.204;19.774;2022-11-11T17:33:57;102194.53;;;9.26;95.33
72961;BME280;61141;46.204;19.774;2022-11-11T17:37:18;102168.38;;;9.12;95.75
72961;BME280;61141;46.204;19.774;2022-11-11T17:40:44;102182.69;;;9.09;95.86
72961;BME280;61141;46.204;19.774;2022-11-11T17:44:05;102161.47;;;9.06;96.01
72961;BME280;61141;46.204;19.774;2022-11-11T17:47:26;102169.28;;;8.99;95.82
72961;BME280;61141;46.204;19.774;2022-11-11T17:50:48;102172.25;;;8.80;96.01
72961;BME280;61141;46.204;19.774;2022-11-11T17:54:09;102177.31;;;8.73;96.26
72961;BME280;61141;46.204;19.774;2022-11-11T17:57:31;102171.66;;;8.61;96.26
72961;BME280;61141;46.204;19.774;2022-11-11T18:00:52;102170.03;;;8.60;96.67
72961;BME280;61141;46.204;19.774;2022-11-11T18:04:14;102175.34;;;8.43;97.00
72961;BME280;61141;46.204;19.774;2022-11-11T18:07:36;102173.19;;;8.31;97.56
72961;BME280;61141;46.204;19.774;2022-11-11T18:11:06;102174.38;;;8.25;97.44
72961;BME280;61141;46.204;19.774;2022-11-11T18:14:28;102176.09;;;8.21;97.46
72961;BME280;61141;46.204;19.774;2022-11-11T18:17:50;102187.97;;;8.16;97.31
72961;BME280;61141;46.204;19.774;2022-11-11T18:21:12;102182.50;;;8.16;97.44
72961;BME280;61141;46.204;19.774;2022-11-11T18:24:34;102180.50;;;8.08;97.58
72961;BME280;61141;46.204;19.774;2022-11-11T18:27:56;102172.63;;;7.93;97.82
72961;BME280;61141;46.204;19.774;2022-11-11T18:31:17;102189.19;;;8.10;98.10
72961;BME280;61141;46.204;19.774;2022-11-11T18:34:38;102175.63;;;8.19;97.99
72961;BME280;61141;46.204;19.774;2022-11-11T18:38:00;102184.00;;;8.22;97.99
72961;BME280;61141;46.204;19.774;2022-11-11T18:41:22;102194.94;;;8.22;97.91
72961;BME280;61141;46.204;19.774;2022-11-11T18:44:44;102204.94;;;8.27;97.92
72961;BME280;61141;46.204;19.774;2022-11-11T18:48:05;102214.75;;;8.28;97.26
72961;BME280;61141;46.204;19.774;2022-11-11T18:51:28;102217.28;;;8.11;97.12
72961;BME280;61141;46.204;19.774;2022-11-11T18:54:51;102218.47;;;8.18;98.03
72961;BME280;61141;46.204;19.774;2022-11-11T18:58:12;102200.31;;;8.14;97.28
72961;BME280;61141;46.204;19.774;2022-11-11T19:01:38;102211.41;;;8.17;97.24
72961;BME280;61141;46.204;19.774;2022-11-11T19:05:00;102216.34;;;8.15;97.50
72961;BME280;61141;46.204;19.774;2022-11-11T19:08:21;102212.25;;;8.04;96.73
72961;BME280;61141;46.204;19.774;2022-11-11T19:11:44;102203.97;;;7.96;96.89
72961;BME280;61141;46.204;19.774;2022-11-11T19:15:06;102219.75;;;7.85;96.85
72961;BME280;61141;46.204;19.774;2022-11-11T19:18:27;102194.00;;;7.78;96.99
72961;BME280;61141;46.204;19.774;2022-11-11T19:21:48;102193.69;;;7.65;97.02
72961;BME280;61141;46.204;19.774;2022-11-11T19:25:10;102211.28;;;7.87;97.87
72961;BME280;61141;46.204;19.774;2022-11-11T19:28:31;102215.72;;;7.83;98.25
72961;BME280;61141;46.204;19.774;2022-11-11T19:31:52;102208.25;;;7.75;97.61
72961;BME280;61141;46.204;19.774;2022-11-11T19:35:14;102201.97;;;7.74;97.98
72961;BME280;61141;46.204;19.774;2022-11-11T19:38:36;102207.03;;;7.81;98.13
72961;BME280;61141;46.204;19.774;2022-11-11T19:41:58;102212.78;;;7.65;97.52
72961;BME280;61141;46.204;19.774;2022-11-11T19:45:20;102201.88;;;7.65;97.30
72961;BME280;61141;46.204;19.774;2022-11-11T19:48:42;102193.69;;;7.65;97.48
72961;BME280;61141;46.204;19.774;2022-11-11T19:52:04;102188.12;;;7.57;97.34
72961;BME280;61141;46.204;19.774;2022-11-11T19:55:25;102192.09;;;7.37;97.11
72961;BME280;61141;46.204;19.774;2022-11-11T19:58:47;102196.31;;;7.30;97.46
72961;BME280;61141;46.204;19.774;2022-11-11T20:02:09;102191.88;;;7.20;97.33